createdAt,value
2023-02-16T00:01:18.888Z,102420.50
2023-02-16T00:03:22.566Z,102414.50
2023-02-16T00:05:32.892Z,102417.16
2023-02-16T00:07:34.332Z,102415.38
2023-02-16T00:09:35.806Z,102411.84
2023-02-16T00:11:56.168Z,102406.63
2023-02-16T00:13:57.651Z,102411.84
2023-02-16T00:15:59.171Z,102405.78
2023-02-16T00:18:02.869Z,102407.47
2023-02-16T00:20:14.081Z,102406.59
2023-02-16T00:22:15.521Z,102409.16
2023-02-16T00:24:17.114Z,102408.28
2023-02-16T00:26:22.796Z,102403.03
2023-02-16T00:28:24.245Z,102395.16
2023-02-16T00:30:25.836Z,102396.84
2023-02-16T00:32:27.419Z,102396.84
2023-02-16T00:34:32.943Z,102396.84
2023-02-16T00:36:34.418Z,102396.75
2023-02-16T00:38:36.193Z,102381.91
2023-02-16T00:40:37.945Z,102386.19
2023-02-16T00:42:39.662Z,102384.38
2023-02-16T00:45:01.830Z,102385.19
2023-02-16T00:47:15.296Z,102384.34
2023-02-16T00:49:18.937Z,102369.53
2023-02-16T00:51:25.789Z,102375.69
2023-02-16T00:53:27.808Z,102380.06
2023-02-16T00:55:35.289Z,102375.69
2023-02-16T00:57:51.152Z,102368.56
2023-02-16T01:00:00.566Z,102372.88
2023-02-16T01:02:02.110Z,102377.28
2023-02-16T01:04:07.270Z,102372.06
2023-02-16T01:06:29.146Z,102364.31
2023-02-16T01:08:49.022Z,102359.09
2023-02-16T01:11:10.469Z,102358.19
2023-02-16T01:13:12.140Z,102360.75
2023-02-16T01:15:15.182Z,102362.47
2023-02-16T01:17:16.672Z,102369.41
2023-02-16T01:19:18.208Z,102367.69
2023-02-16T01:21:21.821Z,102373.78
2023-02-16T01:23:23.309Z,102373.75
2023-02-16T01:25:24.800Z,102362.41
2023-02-16T01:27:26.261Z,102374.56
2023-02-16T01:29:27.732Z,102373.63
2023-02-16T01:31:29.315Z,102369.25
2023-02-16T01:33:30.835Z,102364.84
2023-02-16T01:35:34.227Z,102362.19
2023-02-16T01:37:35.762Z,102373.50
2023-02-16T01:39:37.231Z,102367.38
2023-02-16T01:41:51.450Z,102372.53
2023-02-16T01:43:59.662Z,102375.03
2023-02-16T01:46:11.681Z,102367.06
2023-02-16T01:48:21.955Z,102370.44
2023-02-16T01:50:34.276Z,102367.69
2023-02-16T01:52:43.200Z,102377.16
2023-02-16T01:54:53.408Z,102368.41
2023-02-16T01:57:04.648Z,102365.72
2023-02-16T01:59:22.768Z,102374.38
2023-02-16T02:01:37.534Z,102364.72
2023-02-16T02:03:57.714Z,102363.75
2023-02-16T02:05:59.293Z,102361.03
2023-02-16T02:08:15.648Z,102364.44
2023-02-16T02:10:24.024Z,102358.31
2023-02-16T02:12:48.093Z,102352.16
2023-02-16T02:14:49.601Z,102358.19
2023-02-16T02:16:57.768Z,102361.63
2023-02-16T02:18:59.241Z,102363.25
2023-02-16T02:21:28.363Z,102361.50
2023-02-16T02:24:07.379Z,102353.66
2023-02-16T02:26:33.745Z,102347.53
2023-02-16T02:28:55.090Z,102350.97
2023-02-16T02:31:15.420Z,102347.47
2023-02-16T02:33:22.744Z,102353.53
2023-02-16T02:35:27.305Z,102356.13
2023-02-16T02:37:59.819Z,102345.66
2023-02-16T02:40:34.858Z,102336.03
2023-02-16T02:42:49.461Z,102335.94
2023-02-16T02:45:35.420Z,102336.78
2023-02-16T02:47:39.180Z,102338.50
2023-02-16T02:49:42.088Z,102335.88
2023-02-16T02:51:43.613Z,102335.88
2023-02-16T02:54:30.909Z,102328.03
2023-02-16T02:56:51.255Z,102329.72
2023-02-16T02:59:16.680Z,102321.88
2023-02-16T03:01:19.157Z,102325.22
2023-02-16T03:03:32.825Z,102333.88
2023-02-16T03:05:36.985Z,102321.66
2023-02-16T03:07:48.057Z,102331.22
2023-02-16T03:10:09.510Z,102321.69
2023-02-16T03:12:31.551Z,102312.16
2023-02-16T03:14:46.620Z,102308.75
2023-02-16T03:17:11.628Z,102311.44
2023-02-16T03:19:35.547Z,102302.03
2023-02-16T03:21:56.358Z,102300.63
2023-02-16T03:24:18.704Z,102298.97
2023-02-16T03:26:39.289Z,102295.56
2023-02-16T03:29:02.160Z,102294.69
2023-02-16T03:31:06.396Z,102294.69
2023-02-16T03:33:08.170Z,102291.16
2023-02-16T03:35:12.693Z,102286.78
2023-02-16T03:37:14.699Z,102284.19
2023-02-16T03:39:17.612Z,102285.91
2023-02-16T03:41:19.070Z,102291.06
2023-02-16T03:43:25.715Z,102298.84
2023-02-16T03:45:28.638Z,102285.78
2023-02-16T03:47:30.235Z,102278.81
2023-02-16T03:49:31.722Z,102281.44
2023-02-16T03:51:33.252Z,102272.00
2023-02-16T03:53:34.751Z,102276.44
2023-02-16T03:55:37.541Z,102268.63
2023-02-16T03:57:39.627Z,102281.75
2023-02-16T03:59:41.114Z,102274.78
2023-02-16T04:01:42.587Z,102282.53
2023-02-16T04:03:44.133Z,102274.69
2023-02-16T04:05:45.796Z,102268.56
2023-02-16T04:07:47.305Z,102274.59
2023-02-16T04:09:48.794Z,102278.03
2023-02-16T04:12:08.945Z,102282.34
2023-02-16T04:14:10.452Z,102287.47
2023-02-16T04:16:11.953Z,102283.94
2023-02-16T04:18:13.500Z,102288.25
2023-02-16T04:20:22.214Z,102285.59
2023-02-16T04:22:23.678Z,102292.44
2023-02-16T04:24:25.219Z,102294.19
2023-02-16T04:26:26.674Z,102282.91
2023-02-16T04:28:28.132Z,102292.44
2023-02-16T04:30:31.385Z,102283.75
2023-02-16T04:32:32.992Z,102285.53
2023-02-16T04:34:34.479Z,102290.81
2023-02-16T04:36:35.980Z,102291.63
2023-02-16T04:38:37.464Z,102290.78
2023-02-16T04:40:38.922Z,102286.50
2023-02-16T04:42:44.910Z,102287.38
2023-02-16T04:44:46.427Z,102299.47
2023-02-16T04:46:47.878Z,102301.19
2023-02-16T04:48:49.416Z,102299.47
2023-02-16T04:50:51.097Z,102300.31
2023-02-16T04:52:52.567Z,102281.19
2023-02-16T04:54:54.113Z,102281.22
2023-02-16T04:56:55.609Z,102283.88
2023-02-16T04:58:57.062Z,102283.03
2023-02-16T05:00:58.543Z,102281.31
2023-02-16T05:03:00.090Z,102284.75
2023-02-16T05:05:01.549Z,102283.88
2023-02-16T05:07:03.085Z,102287.38
2023-02-16T05:09:05.889Z,102286.44
2023-02-16T05:11:26.059Z,102284.63
2023-02-16T05:13:45.761Z,102281.19
2023-02-16T05:15:47.388Z,102280.34
2023-02-16T05:17:48.987Z,102280.41
2023-02-16T05:19:52.799Z,102274.34
2023-02-16T05:21:54.286Z,102277.84
2023-02-16T05:23:55.742Z,102279.56
2023-02-16T05:25:57.204Z,102279.63
2023-02-16T05:27:58.741Z,102284.00
2023-02-16T05:30:00.270Z,102280.53
2023-02-16T05:32:04.578Z,102279.69
2023-02-16T05:34:06.419Z,102275.44
2023-02-16T05:36:08.180Z,102263.50
2023-02-16T05:38:09.665Z,102265.44
2023-02-16T05:40:11.746Z,102267.38
2023-02-16T05:42:13.452Z,102261.59
2023-02-16T05:44:14.915Z,102259.31
2023-02-16T05:46:16.452Z,102265.63
2023-02-16T05:48:18.276Z,102271.13
2023-02-16T05:50:19.801Z,102273.91
2023-02-16T05:52:21.380Z,102272.22
2023-02-16T05:54:22.959Z,102274.03
2023-02-16T05:56:25.400Z,102262.75
2023-02-16T05:58:26.922Z,102265.41
2023-02-16T06:00:28.630Z,102277.63
2023-02-16T06:02:30.202Z,102268.09
2023-02-16T06:04:32.579Z,102276.84
2023-02-16T06:06:34.750Z,102282.00
2023-02-16T06:08:37.307Z,102284.63
2023-02-16T06:10:38.779Z,102280.25
2023-02-16T06:12:40.235Z,102277.75
2023-02-16T06:14:41.700Z,102269.22
2023-02-16T06:16:45.548Z,102271.97
2023-02-16T06:18:47.014Z,102277.34
2023-02-16T06:20:48.994Z,102273.13
2023-02-16T06:22:50.463Z,102274.16
2023-02-16T06:24:52.107Z,102280.34
2023-02-16T06:26:53.657Z,102274.44
2023-02-16T06:28:55.630Z,102282.38
2023-02-16T06:30:57.225Z,102282.47
2023-02-16T06:32:58.953Z,102271.22
2023-02-16T06:35:00.423Z,102280.84
2023-02-16T06:37:01.902Z,102266.94
2023-02-16T06:39:03.821Z,102274.78
2023-02-16T06:41:06.157Z,102270.53
2023-02-16T06:43:08.116Z,102265.44
2023-02-16T06:45:10.171Z,102268.22
2023-02-16T06:47:11.736Z,102263.88
2023-02-16T06:49:18.556Z,102279.63
2023-02-16T06:51:20.785Z,102271.84
2023-02-16T06:53:22.327Z,102279.78
2023-02-16T06:55:23.818Z,102275.53
2023-02-16T06:57:25.330Z,102273.84
2023-02-16T06:59:26.835Z,102280.91
2023-02-16T07:01:28.795Z,102278.47
2023-02-16T07:03:30.475Z,102262.88
2023-02-16T07:05:32.195Z,102264.75
2023-02-16T07:07:33.671Z,102277.03
2023-02-16T07:09:38.157Z,102283.28
2023-02-16T07:11:39.949Z,102278.19
2023-02-16T07:13:41.507Z,102280.91
2023-02-16T07:15:42.978Z,102284.47
2023-02-16T07:17:44.477Z,102306.31
2023-02-16T07:19:46.019Z,102290.72
2023-02-16T07:21:47.537Z,102307.34
2023-02-16T07:23:49.346Z,102291.75
2023-02-16T07:25:50.841Z,102301.47
2023-02-16T07:27:54.601Z,102307.63
2023-02-16T07:29:56.106Z,102301.63
2023-02-16T07:31:57.826Z,102299.91
2023-02-16T07:33:59.414Z,102304.34
2023-02-16T07:36:00.972Z,102296.53
2023-02-16T07:38:02.757Z,102300.03
2023-02-16T07:40:04.955Z,102299.22
2023-02-16T07:42:06.462Z,102292.25
2023-02-16T07:44:08.363Z,102289.59
2023-02-16T07:46:10.761Z,102293.97
2023-02-16T07:48:13.901Z,102297.47
2023-02-16T07:50:16.498Z,102301.00
2023-02-16T07:52:18.004Z,102294.06
2023-02-16T07:54:19.455Z,102281.03
2023-02-16T07:56:23.245Z,102277.63
2023-02-16T07:58:27.602Z,102285.63
2023-02-16T08:00:29.161Z,102278.72
2023-02-16T08:02:30.739Z,102274.41
2023-02-16T08:04:32.220Z,102282.31
2023-02-16T08:06:37.055Z,102291.13
2023-02-16T08:08:39.307Z,102294.69
2023-02-16T08:10:40.790Z,102292.13
2023-02-16T08:12:42.676Z,102295.63
2023-02-16T08:14:46.611Z,102287.81
2023-02-16T08:16:50.365Z,102294.81
2023-02-16T08:18:56.309Z,102281.75
2023-02-16T08:21:04.133Z,102268.69
2023-02-16T08:23:07.800Z,102267.03
2023-02-16T08:25:09.342Z,102274.09
2023-02-16T08:27:10.884Z,102266.28
2023-02-16T08:29:14.968Z,102276.78
2023-02-16T08:31:19.131Z,102277.69
2023-02-16T08:33:20.650Z,102273.41
2023-02-16T08:35:22.618Z,102288.31
2023-02-16T08:37:25.224Z,102278.75
2023-02-16T08:39:30.718Z,102288.47
2023-02-16T08:41:35.892Z,102303.38
2023-02-16T08:43:37.392Z,102291.22
2023-02-16T08:45:45.255Z,102284.25
2023-02-16T08:47:46.851Z,102279.06
2023-02-16T08:49:48.350Z,102276.50
2023-02-16T08:51:52.961Z,102282.66
2023-02-16T08:53:55.932Z,102283.56
2023-02-16T08:55:58.666Z,102285.38
2023-02-16T08:58:00.965Z,102296.75
2023-02-16T09:00:21.049Z,102297.69
2023-02-16T09:02:22.818Z,102299.47
2023-02-16T09:04:25.606Z,102293.38
2023-02-16T09:06:27.492Z,102300.44
2023-02-16T09:08:29.314Z,102307.47
2023-02-16T09:10:30.776Z,102299.63
2023-02-16T09:12:33.698Z,102304.03
2023-02-16T09:14:35.141Z,102295.38
2023-02-16T09:16:39.406Z,102295.38
2023-02-16T09:18:42.002Z,102301.50
2023-02-16T09:20:46.993Z,102300.66
2023-02-16T09:22:48.689Z,102300.69
2023-02-16T09:24:50.159Z,102295.44
2023-02-16T09:26:52.041Z,102291.97
2023-02-16T09:28:53.900Z,102291.16
2023-02-16T09:30:55.449Z,102296.47
2023-02-16T09:32:59.247Z,102301.78
2023-02-16T09:35:00.721Z,102302.69
2023-02-16T09:37:02.224Z,102301.00
2023-02-16T09:39:03.831Z,102293.16
2023-02-16T09:41:20.546Z,102302.81
2023-02-16T09:43:46.163Z,102299.34
2023-02-16T09:45:51.706Z,102295.88
2023-02-16T09:47:55.161Z,102308.16
2023-02-16T09:50:03.858Z,102302.06
2023-02-16T09:52:08.377Z,102302.09
2023-02-16T09:54:31.819Z,102303.88
2023-02-16T09:56:46.340Z,102305.69
2023-02-16T09:59:24.556Z,102313.63
2023-02-16T10:01:42.245Z,102315.47
2023-02-16T10:03:49.279Z,102313.81
2023-02-16T10:06:05.620Z,102313.06
2023-02-16T10:08:25.107Z,102300.84
2023-02-16T10:10:56.207Z,102310.50
2023-02-16T10:13:16.968Z,102304.41
2023-02-16T10:15:23.361Z,102306.25
2023-02-16T10:17:44.791Z,102315.06
2023-02-16T10:20:21.913Z,102308.06
2023-02-16T10:22:38.535Z,102322.94
2023-02-16T10:24:49.861Z,102328.16
2023-02-16T10:26:59.663Z,102324.63
2023-02-16T10:29:07.634Z,102332.53
2023-02-16T10:31:36.339Z,102319.38
2023-02-16T10:33:46.086Z,102323.78
2023-02-16T10:35:49.950Z,102324.66
2023-02-16T10:38:01.660Z,102322.03
2023-02-16T10:40:23.155Z,102328.19
2023-02-16T10:42:28.252Z,102321.16
2023-02-16T10:44:40.247Z,102312.44
2023-02-16T10:46:47.881Z,102312.44
2023-02-16T10:48:54.322Z,102309.81
2023-02-16T10:51:01.309Z,102315.13
2023-02-16T10:53:09.643Z,102309.91
2023-02-16T10:55:13.135Z,102314.34
2023-02-16T10:57:27.042Z,102306.44
2023-02-16T10:59:38.704Z,102310.84
2023-02-16T11:01:45.068Z,102309.97
2023-02-16T11:03:50.316Z,102309.13
2023-02-16T11:05:53.411Z,102307.38
2023-02-16T11:07:57.126Z,102312.66
2023-02-16T11:10:02.728Z,102305.69
2023-02-16T11:12:31.031Z,102303.94
2023-02-16T11:14:32.860Z,102309.22
2023-02-16T11:16:34.641Z,102314.47
2023-02-16T11:18:41.629Z,102305.72
2023-02-16T11:20:46.006Z,102314.47
2023-02-16T11:22:47.503Z,102317.13
2023-02-16T11:24:48.983Z,102314.50
2023-02-16T11:27:02.166Z,102315.41
2023-02-16T11:29:18.871Z,102315.44
2023-02-16T11:31:39.729Z,102302.28
2023-02-16T11:33:42.994Z,102306.72
2023-02-16T11:35:45.724Z,102311.16
2023-02-16T11:37:47.506Z,102315.53
2023-02-16T11:39:56.664Z,102304.16
2023-02-16T11:42:02.768Z,102306.78
2023-02-16T11:44:04.745Z,102310.31
2023-02-16T11:46:17.608Z,102310.34
2023-02-16T11:48:28.552Z,102302.41
2023-02-16T11:50:35.398Z,102298.00
2023-02-16T11:52:37.067Z,102299.75
2023-02-16T11:54:48.796Z,102304.16
2023-02-16T11:57:05.239Z,102304.13
2023-02-16T11:59:21.493Z,102303.25
2023-02-16T12:01:58.522Z,102303.25
2023-02-16T12:04:27.014Z,102300.59
2023-02-16T12:07:07.672Z,102300.59
2023-02-16T12:09:43.230Z,102304.97
2023-02-16T12:12:40.467Z,102291.81
2023-02-16T12:15:16.949Z,102285.66
2023-02-16T12:17:21.673Z,102287.41
2023-02-16T12:19:31.970Z,102286.53
2023-02-16T12:21:53.639Z,102286.53
2023-02-16T12:24:22.035Z,102286.50
2023-02-16T12:26:38.323Z,102288.22
2023-02-16T12:28:57.952Z,102288.22
2023-02-16T12:31:11.612Z,102282.06
2023-02-16T12:33:15.849Z,102289.09
2023-02-16T12:35:55.109Z,102267.16
2023-02-16T12:38:29.600Z,102268.03
2023-02-16T12:40:58.305Z,102261.00
2023-02-16T12:43:32.467Z,102260.13
2023-02-16T12:45:37.450Z,102258.38
2023-02-16T12:47:49.781Z,102253.97
2023-02-16T12:50:14.009Z,102254.00
2023-02-16T12:52:34.157Z,102255.72
2023-02-16T12:54:43.233Z,102246.06
2023-02-16T12:57:13.608Z,102244.31
2023-02-16T12:59:29.845Z,102240.78
2023-02-16T13:01:35.699Z,102234.66
2023-02-16T13:03:50.140Z,102232.84
2023-02-16T13:06:03.129Z,102224.13
2023-02-16T13:08:42.878Z,102218.88
2023-02-16T13:10:52.825Z,102211.00
2023-02-16T13:13:00.757Z,102204.88
2023-02-16T13:15:10.519Z,102204.00
2023-02-16T13:17:17.875Z,102202.28
2023-02-16T13:19:19.627Z,102203.16
2023-02-16T13:21:51.184Z,102199.66
2023-02-16T13:24:17.650Z,102198.75
2023-02-16T13:26:28.306Z,102197.84
2023-02-16T13:28:48.399Z,102194.34
2023-02-16T13:30:50.038Z,102197.84
2023-02-16T13:33:37.019Z,102193.47
2023-02-16T13:36:22.978Z,102200.47
2023-02-16T13:38:36.156Z,102194.31
2023-02-16T13:40:56.304Z,102191.66
2023-02-16T13:43:13.194Z,102204.78
2023-02-16T13:45:24.421Z,102202.16
2023-02-16T13:47:38.204Z,102200.38
2023-02-16T13:49:42.936Z,102196.84
2023-02-16T13:51:46.284Z,102199.44
2023-02-16T13:54:02.251Z,102198.56
2023-02-16T13:56:14.629Z,102198.56
2023-02-16T13:58:17.032Z,102193.28
2023-02-16T14:00:42.305Z,102199.44
2023-02-16T14:02:57.471Z,102197.66
2023-02-16T14:05:01.945Z,102203.78
2023-02-16T14:07:03.417Z,102192.38
2023-02-16T14:09:14.002Z,102195.00
2023-02-16T14:11:15.511Z,102202.03
2023-02-16T14:13:17.372Z,102193.25
2023-02-16T14:15:20.888Z,102201.16
2023-02-16T14:17:26.107Z,102192.38
2023-02-16T14:19:27.604Z,102180.97
2023-02-16T14:21:35.378Z,102186.22
2023-02-16T14:23:36.933Z,102199.38
2023-02-16T14:25:40.229Z,102188.00
2023-02-16T14:27:47.341Z,102194.09
2023-02-16T14:29:59.183Z,102192.38
2023-02-16T14:32:24.223Z,102187.97
2023-02-16T14:34:31.333Z,102195.84
2023-02-16T14:36:33.383Z,102186.19
2023-02-16T14:38:38.502Z,102190.59
2023-02-16T14:40:55.473Z,102194.06
2023-02-16T14:43:01.545Z,102192.34
2023-02-16T14:45:31.888Z,102194.94
2023-02-16T14:48:05.242Z,102189.63
2023-02-16T14:50:37.276Z,102196.63
2023-02-16T14:53:00.349Z,102193.13
2023-02-16T14:55:12.084Z,102187.84
2023-02-16T14:57:21.517Z,102190.47
2023-02-16T14:59:54.650Z,102191.34
2023-02-16T15:01:56.384Z,102183.44
2023-02-16T15:03:59.640Z,102190.44
2023-02-16T15:06:05.936Z,102193.06
2023-02-16T15:08:37.105Z,102196.59
2023-02-16T15:10:40.243Z,102200.06
2023-02-16T15:12:43.979Z,102201.81
2023-02-16T15:14:49.631Z,102197.44
2023-02-16T15:16:53.307Z,102192.16
2023-02-16T15:18:56.846Z,102193.06
2023-02-16T15:20:59.128Z,102197.47
2023-02-16T15:23:07.927Z,102184.31
2023-02-16T15:25:20.939Z,102180.81
2023-02-16T15:27:23.601Z,102182.56
2023-02-16T15:29:27.439Z,102172.91
2023-02-16T15:31:33.119Z,102162.41
2023-02-16T15:33:39.573Z,102165.03
2023-02-16T15:35:43.430Z,102167.63
2023-02-16T15:37:44.870Z,102165.00
2023-02-16T15:40:03.027Z,102174.66
2023-02-16T15:42:22.043Z,102165.00
2023-02-16T15:44:36.752Z,102154.47
2023-02-16T15:46:42.100Z,102154.47
2023-02-16T15:48:43.634Z,102151.84
2023-02-16T15:50:45.905Z,102150.09
2023-02-16T15:52:47.926Z,102152.72
2023-02-16T15:54:50.239Z,102146.56
2023-02-16T15:56:54.075Z,102151.84
2023-02-16T15:58:58.000Z,102152.72
2023-02-16T16:01:00.490Z,102150.97
2023-02-16T16:03:02.201Z,102148.34
2023-02-16T16:05:07.304Z,102150.97
2023-02-16T16:07:14.244Z,102145.69
2023-02-16T16:09:33.054Z,102138.69
2023-02-16T16:11:36.393Z,102147.44
2023-02-16T16:13:38.485Z,102149.19
2023-02-16T16:15:46.760Z,102151.81
2023-02-16T16:17:49.507Z,102149.19
2023-02-16T16:19:51.368Z,102155.34
2023-02-16T16:21:55.194Z,102146.56
2023-02-16T16:24:06.504Z,102145.72
2023-02-16T16:26:19.201Z,102152.72
2023-02-16T16:28:41.133Z,102157.97
2023-02-16T16:30:45.220Z,102150.09
2023-02-16T16:32:47.201Z,102149.22
2023-02-16T16:34:49.960Z,102145.69
2023-02-16T16:36:56.996Z,102138.69
2023-02-16T16:39:16.433Z,102129.06
2023-02-16T16:41:28.534Z,102130.78
2023-02-16T16:43:32.574Z,102135.16
2023-02-16T16:45:38.303Z,102128.16
2023-02-16T16:47:41.266Z,102127.28
2023-02-16T16:49:55.458Z,102126.41
2023-02-16T16:51:57.066Z,102127.28
2023-02-16T16:54:00.908Z,102120.28
2023-02-16T16:56:02.486Z,102124.63
2023-02-16T16:58:07.867Z,102119.38
2023-02-16T17:00:10.937Z,102122.88
2023-02-16T17:02:12.522Z,102119.38
2023-02-16T17:04:14.079Z,102113.25
2023-02-16T17:06:17.588Z,102110.63
2023-02-16T17:08:19.241Z,102102.75
2023-02-16T17:10:22.010Z,102103.63
2023-02-16T17:12:24.782Z,102104.50
2023-02-16T17:14:27.719Z,102090.47
2023-02-16T17:16:36.558Z,102092.22
2023-02-16T17:18:38.068Z,102093.09
2023-02-16T17:20:39.525Z,102095.72
2023-02-16T17:22:41.036Z,102098.34
2023-02-16T17:24:42.690Z,102087.78
2023-02-16T17:26:44.147Z,102090.41
2023-02-16T17:28:45.674Z,102098.31
2023-02-16T17:30:47.223Z,102099.19
2023-02-16T17:32:48.818Z,102097.47
2023-02-16T17:34:50.269Z,102097.41
2023-02-16T17:36:52.841Z,102100.94
2023-02-16T17:38:54.964Z,102104.44
2023-02-16T17:40:57.739Z,102094.84
2023-02-16T17:42:59.214Z,102087.84
2023-02-16T17:45:00.660Z,102092.22
2023-02-16T17:47:02.785Z,102094.84
2023-02-16T17:49:04.258Z,102100.97
2023-02-16T17:51:09.964Z,102100.97
2023-02-16T17:53:14.013Z,102098.34
2023-02-16T17:55:15.699Z,102103.59
2023-02-16T17:57:17.921Z,102104.47
2023-02-16T17:59:19.520Z,102095.72
2023-02-16T18:01:21.184Z,102098.34
2023-02-16T18:03:23.124Z,102093.97
2023-02-16T18:05:24.623Z,102095.72
2023-02-16T18:07:26.394Z,102097.47
2023-02-16T18:09:27.858Z,102095.72
2023-02-16T18:11:29.510Z,102088.72
2023-02-16T18:13:31.583Z,102086.09
2023-02-16T18:15:33.766Z,102093.09
2023-02-16T18:17:35.267Z,102087.84
2023-02-16T18:19:36.730Z,102083.47
2023-02-16T18:21:38.190Z,102081.72
2023-02-16T18:23:40.096Z,102081.72
2023-02-16T18:25:43.958Z,102087.88
2023-02-16T18:27:45.695Z,102084.34
2023-02-16T18:29:47.273Z,102078.22
2023-02-16T18:31:48.814Z,102073.84
2023-02-16T18:33:50.657Z,102075.63
2023-02-16T18:35:55.062Z,102071.25
2023-02-16T18:37:56.524Z,102075.63
2023-02-16T18:39:57.999Z,102068.63
2023-02-16T18:41:59.477Z,102069.50
2023-02-16T18:44:01.414Z,102070.34
2023-02-16T18:46:08.012Z,102065.97
2023-02-16T18:48:09.700Z,102065.09
2023-02-16T18:50:12.440Z,102059.84
2023-02-16T18:52:13.926Z,102068.59
2023-02-16T18:54:15.475Z,102066.84
2023-02-16T18:56:17.033Z,102061.59
2023-02-16T18:58:18.688Z,102063.34
2023-02-16T19:00:21.801Z,102055.44
2023-02-16T19:02:23.252Z,102065.06
2023-02-16T19:04:25.941Z,102057.19
2023-02-16T19:06:27.965Z,102049.31
2023-02-16T19:08:29.404Z,102045.81
2023-02-16T19:10:31.337Z,102048.44
2023-02-16T19:12:32.791Z,102047.56
2023-02-16T19:14:34.384Z,102044.06
2023-02-16T19:16:35.864Z,102045.81
2023-02-16T19:18:37.319Z,102042.31
2023-02-16T19:20:38.774Z,102044.94
2023-02-16T19:22:40.380Z,102043.19
2023-02-16T19:24:41.864Z,102041.44
2023-02-16T19:26:43.352Z,102045.81
2023-02-16T19:28:45.777Z,102035.31
2023-02-16T19:30:49.254Z,102029.16
2023-02-16T19:32:50.921Z,102031.78
2023-02-16T19:34:52.436Z,102037.06
2023-02-16T19:36:54.061Z,102030.03
2023-02-16T19:38:55.704Z,102030.03
2023-02-16T19:40:57.499Z,102020.41
2023-02-16T19:42:58.956Z,102018.66
2023-02-16T19:45:00.431Z,102019.53
2023-02-16T19:47:03.186Z,102014.28
2023-02-16T19:49:04.947Z,102015.16
2023-02-16T19:51:07.830Z,102014.28
2023-02-16T19:53:09.338Z,102008.16
2023-02-16T19:55:11.620Z,102004.66
2023-02-16T19:57:13.246Z,101999.41
2023-02-16T19:59:15.378Z,101999.41
2023-02-16T20:01:19.923Z,101994.16
2023-02-16T20:03:21.398Z,101993.28
2023-02-16T20:05:22.880Z,101998.53
2023-02-16T20:07:24.338Z,101992.41
2023-02-16T20:09:25.819Z,101994.16
2023-02-16T20:11:28.670Z,101987.16
2023-02-16T20:13:30.171Z,101987.16
2023-02-16T20:15:31.782Z,101986.25
2023-02-16T20:17:33.268Z,101980.13
2023-02-16T20:19:34.716Z,101981.88
2023-02-16T20:21:36.356Z,101974.00
2023-02-16T20:23:38.798Z,101964.38
2023-02-16T20:25:40.323Z,101960.88
2023-02-16T20:27:42.075Z,101956.50
2023-02-16T20:29:43.632Z,101960.00
2023-02-16T20:31:52.491Z,101967.00
2023-02-16T20:33:54.369Z,101958.25
2023-02-16T20:35:55.865Z,101963.50
2023-02-16T20:37:57.325Z,101957.38
2023-02-16T20:39:59.008Z,101960.00
2023-02-16T20:42:00.504Z,101957.38
2023-02-16T20:44:02.898Z,101951.25
2023-02-16T20:46:06.519Z,101950.38
2023-02-16T20:48:09.513Z,101938.09
2023-02-16T20:50:11.247Z,101943.38
2023-02-16T20:52:12.757Z,101939.88
2023-02-16T20:54:14.351Z,101938.13
2023-02-16T20:56:24.161Z,101931.09
2023-02-16T20:58:25.612Z,101931.09
2023-02-16T21:00:27.461Z,101932.84
2023-02-16T21:02:28.974Z,101936.38
2023-02-16T21:04:30.646Z,101926.72
2023-02-16T21:06:32.517Z,101922.34
2023-02-16T21:08:34.081Z,101917.97
2023-02-16T21:10:35.666Z,101917.97
2023-02-16T21:12:37.151Z,101915.34
2023-02-16T21:14:38.708Z,101907.47
2023-02-16T21:16:41.084Z,101901.34
2023-02-16T21:18:43.274Z,101892.56
2023-02-16T21:20:45.057Z,101896.94
2023-02-16T21:22:46.643Z,101891.69
2023-02-16T21:24:48.136Z,101890.81
2023-02-16T21:26:49.731Z,101886.44
2023-02-16T21:28:52.148Z,101888.19
2023-02-16T21:30:54.217Z,101891.69
2023-02-16T21:32:56.039Z,101890.81
2023-02-16T21:34:57.562Z,101877.66
2023-02-16T21:36:59.058Z,101882.06
2023-02-16T21:39:02.837Z,101878.56
2023-02-16T21:41:25.976Z,101866.28
2023-02-16T21:43:27.566Z,101865.44
2023-02-16T21:45:29.227Z,101875.06
2023-02-16T21:47:49.437Z,101872.44
2023-02-16T21:49:50.907Z,101872.44
2023-02-16T21:51:52.548Z,101868.94
2023-02-16T21:53:54.491Z,101871.56
2023-02-16T21:56:14.791Z,101867.19
2023-02-16T21:58:16.598Z,101876.81
2023-02-16T22:00:18.108Z,101872.44
2023-02-16T22:02:19.574Z,101880.31
2023-02-16T22:04:22.711Z,101873.31
2023-02-16T22:06:34.524Z,101874.19
2023-02-16T22:08:38.078Z,101882.06
2023-02-16T22:10:39.630Z,101879.44
2023-02-16T22:12:41.095Z,101874.16
2023-02-16T22:14:42.572Z,101872.41
2023-02-16T22:16:46.393Z,101867.16
2023-02-16T22:18:48.973Z,101868.03
2023-02-16T22:20:50.470Z,101856.63
2023-02-16T22:22:53.486Z,101854.88
2023-02-16T22:24:54.943Z,101846.97
2023-02-16T22:26:56.394Z,101846.09
2023-02-16T22:28:58.624Z,101844.34
2023-02-16T22:31:07.218Z,101841.69
2023-02-16T22:33:08.801Z,101834.69
2023-02-16T22:35:10.286Z,101833.81
2023-02-16T22:37:11.764Z,101833.81
2023-02-16T22:39:14.234Z,101826.78
2023-02-16T22:41:15.732Z,101832.06
2023-02-16T22:43:17.204Z,101832.06
2023-02-16T22:45:18.687Z,101829.44
2023-02-16T22:47:20.164Z,101834.69
2023-02-16T22:49:21.705Z,101834.69
2023-02-16T22:51:23.234Z,101830.31
2023-02-16T22:53:26.921Z,101831.19
2023-02-16T22:55:28.512Z,101826.78
2023-02-16T22:57:30.048Z,101827.66
2023-02-16T22:59:31.517Z,101834.72
2023-02-16T23:01:33.355Z,101837.34
2023-02-16T23:03:34.795Z,101838.22
2023-02-16T23:05:36.272Z,101825.06
2023-02-16T23:07:37.838Z,101817.16
2023-02-16T23:09:39.297Z,101818.03
2023-02-16T23:11:40.892Z,101818.03
2023-02-16T23:13:42.360Z,101813.63
2023-02-16T23:15:43.832Z,101812.75
2023-02-16T23:17:45.278Z,101799.59
2023-02-16T23:19:50.287Z,101798.72
2023-02-16T23:21:53.672Z,101796.94
2023-02-16T23:23:55.951Z,101798.72
2023-02-16T23:25:57.459Z,101801.34
2023-02-16T23:27:59.900Z,101795.19
2023-02-16T23:30:01.513Z,101801.31
2023-02-16T23:32:05.512Z,101796.94
2023-02-16T23:34:08.019Z,101807.44
2023-02-16T23:36:10.019Z,101798.66
2023-02-16T23:38:14.368Z,101803.03
2023-02-16T23:40:15.848Z,101800.41
2023-02-16T23:42:17.308Z,101795.13
2023-02-16T23:44:18.778Z,101796.88
2023-02-16T23:46:20.289Z,101796.88
2023-02-16T23:48:23.095Z,101792.47
2023-02-16T23:50:26.088Z,101800.38
2023-02-16T23:52:27.558Z,101793.34
2023-02-16T23:54:29.123Z,101790.72
2023-02-16T23:56:30.672Z,101786.31
2023-02-16T23:58:42.630Z,101794.22
